Time;durP1;ratioP1;P1;durP2;ratioP2;P2;SDS_P1;SDS_P2;PMS_P1;PMS_P2;Temp;Humidity;BMP_temperature;BMP_pressure;BME280_temperature;BME280_humidity;BME280_pressure;Samples;Min_cycle;Max_cycle;Signal;HPM_P1;HPM_P2
2023/06/19 00:00:32;;;;;;;9.75;8.82;;;;;;;;;;5103571;28;20505;-80
2023/06/19 00:02:59;;;;;;;10.73;8.85;;;;;;;;;;5094353;28;20098;-80
2023/06/19 00:05:26;;;;;;;10.07;9.18;;;;;;;;;;5096059;28;20454;-81
2023/06/19 00:07:54;;;;;;;10.50;9.40;;;;;;;;;;5095187;28;20044;-80
2023/06/19 00:10:21;;;;;;;11.68;10.00;;;;;;;;;;5094178;28;20447;-81
2023/06/19 00:12:49;;;;;;;10.10;9.07;;;;;;;;;;5094959;28;20048;-81
2023/06/19 00:15:16;;;;;;;10.75;9.65;;;;;;;;;;5094011;28;20590;-81
2023/06/19 00:17:43;;;;;;;10.40;9.27;;;;;;;;;;5095174;28;20086;-81
2023/06/19 00:20:13;;;;;;;10.77;9.52;;;;;;;;;;5093866;28;20140;-80
2023/06/19 00:22:41;;;;;;;13.27;9.60;;;;;;;;;;5092447;28;20493;-81
2023/06/19 00:25:08;;;;;;;12.45;8.88;;;;;;;;;;5091583;28;20044;-81
2023/06/19 00:27:35;;;;;;;11.55;9.65;;;;;;;;;;5092387;28;20047;-81
2023/06/19 00:30:03;;;;;;;10.90;9.65;;;;;;;;;;5093655;28;20048;-81
2023/06/19 00:32:30;;;;;;;10.10;9.10;;;;;;;;;;5093261;28;20056;-81
2023/06/19 00:34:57;;;;;;;12.82;9.48;;;;;;;;;;5093677;28;20055;-80
2023/06/19 00:37:24;;;;;;;10.27;9.27;;;;;;;;;;5094859;28;20044;-81
2023/06/19 00:39:54;;;;;;;9.98;9.07;;;;;;;;;;5094786;28;20051;-81
2023/06/19 00:42:21;;;;;;;9.90;8.98;;;;;;;;;;5094253;28;20101;-81
2023/06/19 00:44:49;;;;;;;10.20;9.30;;;;;;;;;;5094628;28;20098;-80
2023/06/19 00:47:16;;;;;;;10.15;9.20;;;;;;;;;;5092872;28;20040;-80
2023/06/19 00:49:43;;;;;;;10.32;9.27;;;;;;;;;;5093372;28;20048;-80
2023/06/19 00:52:10;;;;;;;11.88;8.63;;;;;;;;;;5093113;28;20082;-80
2023/06/19 00:54:38;;;;;;;13.57;9.50;;;;;;;;;;5094160;28;20079;-81
2023/06/19 00:57:05;;;;;;;11.18;10.07;;;;;;;;;;5094256;28;20063;-81
2023/06/19 00:59:32;;;;;;;10.95;9.48;;;;;;;;;;5094515;28;20488;-81
2023/06/19 01:02:00;;;;;;;12.25;9.60;;;;;;;;;;5094433;28;20105;-80
2023/06/19 01:04:27;;;;;;;13.35;9.50;;;;;;;;;;5094389;28;20139;-81
2023/06/19 01:06:58;;;;;;;10.32;9.20;;;;;;;;;;5093620;28;20048;-80
2023/06/19 01:09:30;;;;;;;9.98;9.00;;;;;;;;;;5094211;28;20130;-80
2023/06/19 01:12:00;;;;;;;10.52;9.50;;;;;;;;;;5092519;28;20572;-81
2023/06/19 01:14:40;;;;;;;11.05;9.95;;;;;;;;;;5094258;28;20044;-81
2023/06/19 01:17:07;;;;;;;10.93;9.45;;;;;;;;;;5098500;28;20075;-81
2023/06/19 01:19:34;;;;;;;11.52;10.40;;;;;;;;;;5092880;28;20389;-81
2023/06/19 01:22:03;;;;;;;11.88;10.02;;;;;;;;;;5093817;28;20089;-80
2023/06/19 01:24:30;;;;;;;10.32;9.35;;;;;;;;;;5093286;28;20086;-80
2023/06/19 01:26:58;;;;;;;12.15;9.93;;;;;;;;;;5092870;28;20102;-81
2023/06/19 01:29:25;;;;;;;10.05;9.05;;;;;;;;;;5094084;28;20040;-81
2023/06/19 01:31:58;;;;;;;11.15;10.05;;;;;;;;;;5093396;28;20056;-81
2023/06/19 01:34:26;;;;;;;10.88;9.77;;;;;;;;;;5093689;28;20329;-80
2023/06/19 01:36:56;;;;;;;10.63;9.63;;;;;;;;;;5093592;28;20052;-80
2023/06/19 01:39:25;;;;;;;11.00;9.90;;;;;;;;;;5092464;28;20063;-81
2023/06/19 01:41:53;;;;;;;12.43;9.98;;;;;;;;;;5093566;28;20071;-81
2023/06/19 01:44:20;;;;;;;11.32;10.23;;;;;;;;;;5092368;28;20484;-81
2023/06/19 01:46:49;;;;;;;11.73;10.52;;;;;;;;;;5093475;28;20048;-81
2023/06/19 01:49:16;;;;;;;12.35;11.15;;;;;;;;;;5093394;28;20054;-81
2023/06/19 01:51:43;;;;;;;11.07;10.07;;;;;;;;;;5093321;28;20135;-81
2023/06/19 01:54:11;;;;;;;11.55;10.38;;;;;;;;;;5091860;28;20080;-81
2023/06/19 01:56:38;;;;;;;12.43;11.15;;;;;;;;;;5093424;28;20093;-81
2023/06/19 01:59:05;;;;;;;13.45;10.10;;;;;;;;;;5093202;28;20097;-81
2023/06/19 02:01:33;;;;;;;11.85;10.65;;;;;;;;;;5091921;28;20044;-81
2023/06/19 02:04:00;;;;;;;12.73;11.52;;;;;;;;;;5091757;28;20048;-81
2023/06/19 02:06:27;;;;;;;12.43;11.23;;;;;;;;;;5091965;28;20047;-81
2023/06/19 02:08:57;;;;;;;12.65;11.02;;;;;;;;;;5091925;28;20450;-81
2023/06/19 02:11:25;;;;;;;12.02;10.52;;;;;;;;;;5093350;28;20097;-81
2023/06/19 02:13:52;;;;;;;14.13;11.30;;;;;;;;;;5111807;28;20104;-81
2023/06/19 02:16:19;;;;;;;12.43;11.10;;;;;;;;;;5112208;28;20043;-80
2023/06/19 02:18:46;;;;;;;12.35;10.70;;;;;;;;;;5112632;28;20232;-81
2023/06/19 02:21:13;;;;;;;11.57;10.38;;;;;;;;;;5111694;28;20047;-81
2023/06/19 02:23:40;;;;;;;11.90;10.80;;;;;;;;;;5113122;28;20100;-81
2023/06/19 02:26:08;;;;;;;13.98;11.65;;;;;;;;;;5112981;28;20055;-80
2023/06/19 02:28:35;;;;;;;12.48;11.27;;;;;;;;;;5112106;28;20100;-81
2023/06/19 02:31:02;;;;;;;12.93;11.32;;;;;;;;;;5113392;28;20047;-80
2023/06/19 02:33:29;;;;;;;11.90;10.75;;;;;;;;;;5112698;28;20048;-81
2023/06/19 02:35:58;;;;;;;12.43;11.30;;;;;;;;;;5112924;28;20044;-81
2023/06/19 02:38:26;;;;;;;12.07;10.88;;;;;;;;;;5113256;28;20325;-81
2023/06/19 02:40:53;;;;;;;11.85;10.65;;;;;;;;;;5112582;28;20100;-81
2023/06/19 02:43:21;;;;;;;12.45;11.25;;;;;;;;;;5112236;28;20047;-81
2023/06/19 02:45:48;;;;;;;12.50;11.07;;;;;;;;;;5112746;28;20450;-81
2023/06/19 02:48:16;;;;;;;12.35;11.13;;;;;;;;;;5112961;28;20450;-81
2023/06/19 02:50:43;;;;;;;11.27;10.02;;;;;;;;;;5112627;28;20112;-81
2023/06/19 02:53:11;;;;;;;13.07;10.65;;;;;;;;;;5112605;28;20100;-81
2023/06/19 02:55:38;;;;;;;11.27;10.13;;;;;;;;;;5111383;28;20058;-81
2023/06/19 02:58:05;;;;;;;11.50;10.48;;;;;;;;;;5112692;28;20052;-81
2023/06/19 03:00:32;;;;;;;12.30;11.20;;;;;;;;;;5112759;28;20047;-81
2023/06/19 03:03:00;;;;;;;11.57;10.48;;;;;;;;;;5111377;28;20079;-81
2023/06/19 03:05:29;;;;;;;11.98;10.85;;;;;;;;;;5111550;28;20054;-82
2023/06/19 03:07:56;;;;;;;15.23;11.57;;;;;;;;;;5112549;28;20062;-81
2023/06/19 03:10:23;;;;;;;13.20;11.13;;;;;;;;;;5111348;28;20083;-81
2023/06/19 03:12:51;;;;;;;12.70;11.40;;;;;;;;;;5112200;28;20083;-81
2023/06/19 03:15:18;;;;;;;11.98;10.82;;;;;;;;;;5111007;28;20085;-81
2023/06/19 03:17:46;;;;;;;13.35;11.95;;;;;;;;;;5111277;28;20043;-81
2023/06/19 03:20:13;;;;;;;14.93;11.35;;;;;;;;;;5112563;28;20059;-81
2023/06/19 03:22:41;;;;;;;13.32;11.93;;;;;;;;;;5111177;28;20110;-81
2023/06/19 03:25:08;;;;;;;13.13;11.30;;;;;;;;;;5112262;28;20051;-81
2023/06/19 03:27:36;;;;;;;13.10;11.45;;;;;;;;;;5112421;28;20083;-81
2023/06/19 03:30:08;;;;;;;20.02;11.90;;;;;;;;;;5112121;28;20048;-81
2023/06/19 03:32:35;;;;;;;11.25;10.15;;;;;;;;;;5114814;28;20055;-81
2023/06/19 03:35:03;;;;;;;15.10;11.07;;;;;;;;;;5114990;28;20113;-80
2023/06/19 03:37:32;;;;;;;12.23;11.02;;;;;;;;;;5115075;28;20043;-81
2023/06/19 03:39:59;;;;;;;13.07;11.20;;;;;;;;;;5115008;28;20047;-81
2023/06/19 03:42:27;;;;;;;12.13;10.93;;;;;;;;;;5116155;28;20092;-81
2023/06/19 03:44:54;;;;;;;14.65;11.27;;;;;;;;;;5116116;28;20047;-81
2023/06/19 03:47:21;;;;;;;13.40;12.05;;;;;;;;;;5117198;28;20051;-81
2023/06/19 03:49:49;;;;;;;12.57;10.77;;;;;;;;;;5115762;28;20399;-80
2023/06/19 03:52:16;;;;;;;12.55;11.27;;;;;;;;;;5115891;28;20506;-81
2023/06/19 03:54:43;;;;;;;12.00;10.90;;;;;;;;;;5115919;28;20051;-81
2023/06/19 03:57:10;;;;;;;14.40;11.15;;;;;;;;;;5115844;28;20051;-81
2023/06/19 03:59:38;;;;;;;13.38;11.98;;;;;;;;;;5114620;28;20449;-81
2023/06/19 04:02:05;;;;;;;12.80;11.60;;;;;;;;;;5114392;28;20051;-81
2023/06/19 04:04:32;;;;;;;12.57;11.35;;;;;;;;;;5114436;28;20480;-81
2023/06/19 04:07:00;;;;;;;14.60;11.73;;;;;;;;;;5114462;28;20389;-81
2023/06/19 04:09:27;;;;;;;12.70;11.45;;;;;;;;;;5114460;28;20437;-81
2023/06/19 04:11:54;;;;;;;12.77;11.48;;;;;;;;;;5114167;28;20113;-81
2023/06/19 04:14:23;;;;;;;12.65;11.40;;;;;;;;;;5114227;28;20067;-81
2023/06/19 04:16:50;;;;;;;12.85;11.38;;;;;;;;;;5114358;28;20521;-81
2023/06/19 04:19:18;;;;;;;13.38;11.63;;;;;;;;;;5115243;28;20090;-81
2023/06/19 04:21:45;;;;;;;16.92;11.52;;;;;;;;;;5114151;28;20055;-81
2023/06/19 04:24:13;;;;;;;25.17;12.50;;;;;;;;;;5115618;28;20071;-82
2023/06/19 04:26:42;;;;;;;17.20;11.57;;;;;;;;;;5113975;28;20062;-81
2023/06/19 04:29:16;;;;;;;14.43;10.20;;;;;;;;;;5114066;28;20072;-81
2023/06/19 04:31:46;;;;;;;20.70;11.77;;;;;;;;;;5113551;28;20116;-82
2023/06/19 04:34:21;;;;;;;13.52;11.40;;;;;;;;;;5113835;28;20079;-81
2023/06/19 04:36:48;;;;;;;20.17;11.25;;;;;;;;;;5113800;28;20044;-81
2023/06/19 04:39:16;;;;;;;15.80;11.65;;;;;;;;;;5113834;28;20096;-81
2023/06/19 04:41:46;;;;;;;11.93;10.70;;;;;;;;;;5113877;28;20491;-81
2023/06/19 04:44:13;;;;;;;14.68;11.35;;;;;;;;;;5113579;28;20589;-81
2023/06/19 04:46:41;;;;;;;13.00;11.68;;;;;;;;;;5113844;28;20434;-81
2023/06/19 04:49:12;;;;;;;17.70;10.82;;;;;;;;;;5115016;28;20051;-81
2023/06/19 04:51:41;;;;;;;24.52;11.07;;;;;;;;;;5113779;28;20059;-81
2023/06/19 04:54:09;;;;;;;18.35;11.00;;;;;;;;;;5112832;28;20044;-81
2023/06/19 04:56:37;;;;;;;15.57;10.50;;;;;;;;;;5114648;28;20055;-82
2023/06/19 04:59:04;;;;;;;15.52;11.05;;;;;;;;;;5113356;28;20489;-82
2023/06/19 05:01:31;;;;;;;21.40;11.48;;;;;;;;;;5113609;28;20051;-81
2023/06/19 05:03:59;;;;;;;16.27;11.13;;;;;;;;;;5115607;28;20052;-82
2023/06/19 05:06:26;;;;;;;16.88;11.63;;;;;;;;;;5115105;28;20039;-81
2023/06/19 05:08:54;;;;;;;12.25;10.98;;;;;;;;;;5113207;28;20091;-81
2023/06/19 05:11:21;;;;;;;12.70;10.45;;;;;;;;;;5113850;28;20479;-81
2023/06/19 05:13:48;;;;;;;11.75;10.55;;;;;;;;;;5112903;28;20051;-81
2023/06/19 05:16:16;;;;;;;12.88;11.55;;;;;;;;;;5112474;28;20473;-80
2023/06/19 05:18:43;;;;;;;12.98;10.85;;;;;;;;;;5114308;28;20251;-81
2023/06/19 05:21:11;;;;;;;12.13;10.93;;;;;;;;;;5112654;28;20048;-81
2023/06/19 05:23:38;;;;;;;14.73;10.80;;;;;;;;;;5112995;28;20052;-81
2023/06/19 05:26:06;;;;;;;11.40;10.18;;;;;;;;;;5112880;28;20043;-81
2023/06/19 05:28:33;;;;;;;14.65;10.95;;;;;;;;;;5112631;28;20043;-81
2023/06/19 05:31:00;;;;;;;14.38;10.70;;;;;;;;;;5113574;28;20089;-81
2023/06/19 05:33:28;;;;;;;14.20;11.35;;;;;;;;;;5112730;28;20491;-80
2023/06/19 05:35:55;;;;;;;20.95;11.52;;;;;;;;;;5112548;28;20444;-81
2023/06/19 05:38:25;;;;;;;19.63;11.20;;;;;;;;;;5113873;28;20054;-81
2023/06/19 05:40:53;;;;;;;11.80;10.68;;;;;;;;;;5112705;28;20052;-81
2023/06/19 05:43:20;;;;;;;11.38;10.00;;;;;;;;;;5113597;28;20159;-81
2023/06/19 05:45:47;;;;;;;12.90;10.88;;;;;;;;;;5111677;28;20040;-81
2023/06/19 05:48:14;;;;;;;11.88;10.75;;;;;;;;;;5112229;28;20051;-81
2023/06/19 05:50:41;;;;;;;13.20;10.40;;;;;;;;;;5113474;28;20065;-81
2023/06/19 05:53:09;;;;;;;12.50;11.20;;;;;;;;;;5111953;28;20047;-81
2023/06/19 05:55:38;;;;;;;13.15;10.38;;;;;;;;;;5111863;28;20492;-81
2023/06/19 05:58:06;;;;;;;13.50;10.82;;;;;;;;;;5112208;28;20048;-81
2023/06/19 06:00:33;;;;;;;13.70;11.30;;;;;;;;;;5112314;28;20058;-81
2023/06/19 06:03:00;;;;;;;13.43;11.57;;;;;;;;;;5111861;28;20449;-81
2023/06/19 06:05:27;;;;;;;13.63;11.48;;;;;;;;;;5112254;28;20055;-81
2023/06/19 06:07:55;;;;;;;13.20;11.75;;;;;;;;;;5113364;28;20048;-81
2023/06/19 06:10:23;;;;;;;18.35;12.13;;;;;;;;;;5113274;28;20098;-80
2023/06/19 06:12:50;;;;;;;12.43;10.90;;;;;;;;;;5112046;28;20159;-81
2023/06/19 06:15:17;;;;;;;12.70;11.32;;;;;;;;;;5113300;28;20056;-81
2023/06/19 06:17:44;;;;;;;12.50;11.40;;;;;;;;;;5111894;28;20082;-82
2023/06/19 06:20:12;;;;;;;13.52;11.63;;;;;;;;;;5119840;28;20073;-80
2023/06/19 06:22:47;;;;;;;14.10;11.00;;;;;;;;;;5112991;28;20459;-80
2023/06/19 06:25:14;;;;;;;12.48;11.25;;;;;;;;;;5110064;28;20044;-81
2023/06/19 06:27:42;;;;;;;15.18;10.90;;;;;;;;;;5113051;28;20044;-81
2023/06/19 06:30:11;;;;;;;14.43;11.00;;;;;;;;;;5112999;28;20093;-81
2023/06/19 06:32:39;;;;;;;14.88;10.90;;;;;;;;;;5112531;28;20470;-82
2023/06/19 06:35:06;;;;;;;13.68;10.63;;;;;;;;;;5111482;28;20051;-81
2023/06/19 06:37:34;;;;;;;14.65;10.88;;;;;;;;;;5112880;28;20061;-82
2023/06/19 06:40:01;;;;;;;12.35;10.45;;;;;;;;;;5112907;28;20407;-81
2023/06/19 06:42:28;;;;;;;13.60;10.95;;;;;;;;;;5111645;28;20047;-82
2023/06/19 06:44:56;;;;;;;12.02;10.63;;;;;;;;;;5111641;28;20062;-81
2023/06/19 06:47:23;;;;;;;12.48;9.48;;;;;;;;;;5112809;28;20096;-81
2023/06/19 06:49:50;;;;;;;13.60;10.77;;;;;;;;;;5111489;28;20059;-81
2023/06/19 06:52:18;;;;;;;12.70;11.38;;;;;;;;;;5111535;28;20106;-81
2023/06/19 06:54:45;;;;;;;12.30;11.05;;;;;;;;;;5110640;28;20052;-81
2023/06/19 06:57:12;;;;;;;12.88;11.57;;;;;;;;;;5112583;28;20485;-81
2023/06/19 06:59:39;;;;;;;12.65;11.07;;;;;;;;;;5112406;28;20051;-81
2023/06/19 07:02:07;;;;;;;12.40;10.95;;;;;;;;;;5112498;28;20450;-81
2023/06/19 07:04:34;;;;;;;12.38;11.13;;;;;;;;;;5112285;28;20059;-81
2023/06/19 07:07:03;;;;;;;15.18;11.55;;;;;;;;;;5116822;28;20044;-81
2023/06/19 07:09:30;;;;;;;12.25;11.05;;;;;;;;;;5116670;28;20047;-81
2023/06/19 07:11:58;;;;;;;11.30;10.20;;;;;;;;;;5115425;28;20062;-81
2023/06/19 07:14:25;;;;;;;13.32;11.40;;;;;;;;;;5115665;28;20114;-81
2023/06/19 07:16:52;;;;;;;15.52;11.60;;;;;;;;;;5114641;28;20048;-81
2023/06/19 07:19:19;;;;;;;12.45;11.07;;;;;;;;;;5116750;28;20092;-81
2023/06/19 07:21:47;;;;;;;16.00;12.50;;;;;;;;;;5116502;28;20048;-81
2023/06/19 07:24:14;;;;;;;17.20;11.60;;;;;;;;;;5115309;28;20556;-82
2023/06/19 07:26:41;;;;;;;13.30;11.50;;;;;;;;;;5116623;28;20130;-82
2023/06/19 07:29:09;;;;;;;12.65;10.40;;;;;;;;;;5116377;28;20078;-81
2023/06/19 07:31:36;;;;;;;10.98;9.88;;;;;;;;;;5116096;28;20084;-82
2023/06/19 07:34:03;;;;;;;14.73;10.23;;;;;;;;;;5116646;28;20124;-82
2023/06/19 07:36:30;;;;;;;11.15;10.10;;;;;;;;;;5115233;28;20047;-82
2023/06/19 07:38:57;;;;;;;10.95;9.50;;;;;;;;;;5115981;28;20094;-81
2023/06/19 07:41:25;;;;;;;14.27;10.35;;;;;;;;;;5115352;28;20096;-81
2023/06/19 07:43:52;;;;;;;10.48;9.30;;;;;;;;;;5115863;28;20097;-81
2023/06/19 07:46:19;;;;;;;11.35;9.10;;;;;;;;;;5114695;28;20047;-82
2023/06/19 07:48:46;;;;;;;11.15;8.73;;;;;;;;;;5114842;28;20495;-81
2023/06/19 07:51:14;;;;;;;11.45;8.60;;;;;;;;;;5114604;28;20050;-81
2023/06/19 07:53:43;;;;;;;8.77;7.65;;;;;;;;;;5114714;28;20106;-81
2023/06/19 07:56:10;;;;;;;11.02;7.82;;;;;;;;;;5113569;28;20112;-81
2023/06/19 07:58:37;;;;;;;10.63;7.00;;;;;;;;;;5114611;28;20043;-82
2023/06/19 08:01:04;;;;;;;7.78;6.95;;;;;;;;;;5115641;28;20048;-81
2023/06/19 08:03:32;;;;;;;7.93;7.22;;;;;;;;;;5114443;28;20047;-82
2023/06/19 08:05:59;;;;;;;9.85;7.07;;;;;;;;;;5114381;28;20047;-81
2023/06/19 08:08:27;;;;;;;8.48;6.90;;;;;;;;;;5115376;28;20541;-81
2023/06/19 08:10:54;;;;;;;6.80;6.20;;;;;;;;;;5114110;28;20422;-82
2023/06/19 08:13:21;;;;;;;8.07;7.03;;;;;;;;;;5114179;28;20054;-80
2023/06/19 08:15:48;;;;;;;6.35;5.75;;;;;;;;;;5114092;28;20105;-79
2023/06/19 08:18:16;;;;;;;10.50;6.70;;;;;;;;;;5114209;28;20479;-79
2023/06/19 08:20:43;;;;;;;6.60;6.00;;;;;;;;;;5115301;28;20051;-79
2023/06/19 08:23:10;;;;;;;10.13;6.07;;;;;;;;;;5114870;28;20090;-80
2023/06/19 08:25:37;;;;;;;7.85;6.30;;;;;;;;;;5115293;28;20556;-79
2023/06/19 08:28:05;;;;;;;7.75;6.50;;;;;;;;;;5114883;28;20040;-80
2023/06/19 08:30:32;;;;;;;6.78;6.13;;;;;;;;;;5114921;28;20388;-79
2023/06/19 08:32:59;;;;;;;9.52;5.53;;;;;;;;;;5115030;28;20445;-80
2023/06/19 08:35:26;;;;;;;6.97;6.13;;;;;;;;;;5115124;27;20047;-82
2023/06/19 08:37:54;;;;;;;7.25;6.05;;;;;;;;;;5113762;28;20048;-81
2023/06/19 08:40:22;;;;;;;8.38;5.80;;;;;;;;;;5113792;28;20124;-80
2023/06/19 08:42:49;;;;;;;6.50;5.70;;;;;;;;;;5114957;28;20145;-79
2023/06/19 08:45:18;;;;;;;9.25;5.88;;;;;;;;;;5114956;28;20051;-79
2023/06/19 08:47:45;;;;;;;5.38;4.88;;;;;;;;;;5113595;28;20081;-80
2023/06/19 08:50:12;;;;;;;6.93;5.00;;;;;;;;;;5114019;28;20055;-81
2023/06/19 08:52:40;;;;;;;5.15;4.60;;;;;;;;;;5120597;28;20047;-83
2023/06/19 08:55:07;;;;;;;6.03;5.53;;;;;;;;;;5115047;28;20093;-81
2023/06/19 08:57:41;;;;;;;5.93;5.30;;;;;;;;;;5114771;28;20081;-82
2023/06/19 09:00:10;;;;;;;5.72;5.30;;;;;;;;;;5114247;28;20047;-85
2023/06/19 09:02:45;;;;;;;6.15;5.55;;;;;;;;;;5113633;28;20070;-85
2023/06/19 09:05:25;;;;;;;6.05;5.57;;;;;;;;;;5114381;28;20075;-82
2023/06/19 09:08:04;;;;;;;7.22;6.50;;;;;;;;;;5113926;28;20048;-82
2023/06/19 09:10:39;;;;;;;6.53;5.90;;;;;;;;;;5114990;28;20047;-81
2023/06/19 09:13:08;;;;;;;7.80;6.63;;;;;;;;;;5115090;28;20044;-83
2023/06/19 09:15:36;;;;;;;7.03;5.63;;;;;;;;;;5113631;28;20074;-81
2023/06/19 09:18:08;;;;;;;8.95;6.40;;;;;;;;;;5114622;28;20079;-83
2023/06/19 09:20:39;;;;;;;6.95;6.20;;;;;;;;;;5113925;28;20085;-85
2023/06/19 09:23:06;;;;;;;5.82;5.32;;;;;;;;;;5113719;28;20116;-81
2023/06/19 09:25:43;;;;;;;6.47;5.80;;;;;;;;;;5113474;28;20097;-85
2023/06/19 09:28:17;;;;;;;7.25;5.97;;;;;;;;;;5114668;28;20043;-86
2023/06/19 09:30:54;;;;;;;6.22;5.82;;;;;;;;;;5113486;28;20059;-82
2023/06/19 09:33:21;;;;;;;6.78;6.20;;;;;;;;;;5112178;28;20051;-83
2023/06/19 09:35:51;;;;;;;6.53;6.05;;;;;;;;;;5113121;28;20389;-84
2023/06/19 09:38:18;;;;;;;6.28;5.57;;;;;;;;;;5114064;28;20081;-84
2023/06/19 09:40:47;;;;;;;6.68;6.05;;;;;;;;;;5113653;28;20052;-81
2023/06/19 09:43:19;;;;;;;10.00;6.97;;;;;;;;;;5113538;28;20047;-83
2023/06/19 09:45:50;;;;;;;8.05;5.78;;;;;;;;;;5113547;28;20047;-84
2023/06/19 09:48:20;;;;;;;6.13;5.57;;;;;;;;;;5113338;28;20487;-82
2023/06/19 09:50:49;;;;;;;7.95;6.03;;;;;;;;;;5113756;28;20492;-80
2023/06/19 09:53:18;;;;;;;13.20;6.22;;;;;;;;;;5113992;28;20044;-85
2023/06/19 09:55:45;;;;;;;10.88;6.75;;;;;;;;;;5113073;28;20044;-84
2023/06/19 09:58:13;;;;;;;11.45;6.50;;;;;;;;;;5113320;28;20048;-84
2023/06/19 10:00:40;;;;;;;11.60;6.60;;;;;;;;;;5112897;28;20093;-83
2023/06/19 10:03:12;;;;;;;10.68;6.63;;;;;;;;;;5112351;28;20457;-83
2023/06/19 10:05:40;;;;;;;8.77;6.88;;;;;;;;;;5114451;28;20047;-85
2023/06/19 10:08:08;;;;;;;8.02;7.00;;;;;;;;;;5113231;28;20067;-81
2023/06/19 10:10:36;;;;;;;7.47;6.70;;;;;;;;;;5118556;28;20479;-85
2023/06/19 10:13:14;;;;;;;10.45;6.72;;;;;;;;;;5112219;28;20051;-81
2023/06/19 10:15:46;;;;;;;9.48;8.65;;;;;;;;;;5112361;28;20048;-84
2023/06/19 10:18:17;;;;;;;9.80;7.70;;;;;;;;;;5112607;28;20043;-82
2023/06/19 10:20:46;;;;;;;7.43;6.60;;;;;;;;;;5112486;28;20056;-84
2023/06/19 10:23:17;;;;;;;10.35;6.55;;;;;;;;;;5112487;28;20078;-79
2023/06/19 10:25:47;;;;;;;7.40;6.72;;;;;;;;;;5113776;28;20088;-80
2023/06/19 10:28:18;;;;;;;7.20;6.10;;;;;;;;;;5113121;28;20502;-81
2023/06/19 10:30:52;;;;;;;8.98;6.97;;;;;;;;;;5112267;28;20131;-80
2023/06/19 10:33:19;;;;;;;10.50;6.25;;;;;;;;;;5113234;28;20054;-84
2023/06/19 10:35:47;;;;;;;10.27;5.80;;;;;;;;;;5111882;28;20055;-81
2023/06/19 10:38:17;;;;;;;6.05;5.53;;;;;;;;;;5113374;28;20528;-80
2023/06/19 10:40:45;;;;;;;6.53;5.93;;;;;;;;;;5112309;28;20055;-80
2023/06/19 10:43:13;;;;;;;7.22;6.18;;;;;;;;;;5112109;28;20077;-81
2023/06/19 10:45:40;;;;;;;8.10;6.25;;;;;;;;;;5113003;28;20048;-80
2023/06/19 10:48:08;;;;;;;7.43;6.00;;;;;;;;;;5112822;28;20055;-80
2023/06/19 10:50:38;;;;;;;6.60;6.00;;;;;;;;;;5111755;28;20452;-80
2023/06/19 10:53:05;;;;;;;6.85;6.15;;;;;;;;;;5113174;28;20044;-82
2023/06/19 10:55:32;;;;;;;6.47;5.88;;;;;;;;;;5113146;28;20071;-81
2023/06/19 10:58:02;;;;;;;7.07;5.82;;;;;;;;;;5112968;28;20099;-83
2023/06/19 11:00:30;;;;;;;7.70;5.97;;;;;;;;;;5112934;28;20127;-85
2023/06/19 11:02:58;;;;;;;7.65;6.00;;;;;;;;;;5111863;28;20480;-81
2023/06/19 11:05:26;;;;;;;5.95;5.20;;;;;;;;;;5113048;28;20059;-81
2023/06/19 11:07:58;;;;;;;5.95;5.53;;;;;;;;;;5112906;28;20056;-80
2023/06/19 11:10:27;;;;;;;8.52;5.95;;;;;;;;;;5113212;28;20048;-83
2023/06/19 11:12:56;;;;;;;7.90;7.03;;;;;;;;;;5111133;28;20066;-81
2023/06/19 11:15:30;;;;;;;8.27;5.65;;;;;;;;;;5112211;28;20553;-85
2023/06/19 11:17:58;;;;;;;8.15;6.53;;;;;;;;;;5112061;28;20071;-85
2023/06/19 11:20:26;;;;;;;7.20;6.50;;;;;;;;;;5112174;28;20051;-85
2023/06/19 11:22:57;;;;;;;6.85;5.93;;;;;;;;;;5112257;28;20051;-83
2023/06/19 11:25:34;;;;;;;7.15;5.43;;;;;;;;;;5112486;28;20488;-81
2023/06/19 11:28:02;;;;;;;7.43;5.88;;;;;;;;;;5127832;27;20494;-83
2023/06/19 11:30:34;;;;;;;5.88;5.47;;;;;;;;;;5112699;28;20055;-83
2023/06/19 11:33:02;;;;;;;6.70;6.20;;;;;;;;;;5110601;28;20411;-84
2023/06/19 11:35:36;;;;;;;5.47;4.90;;;;;;;;;;5111659;28;20139;-81
2023/06/19 11:38:05;;;;;;;5.90;5.30;;;;;;;;;;5112875;28;20057;-82
2023/06/19 11:40:39;;;;;;;5.68;5.18;;;;;;;;;;5112348;28;20481;-80
2023/06/19 11:43:08;;;;;;;6.50;5.13;;;;;;;;;;5112743;28;20065;-83
2023/06/19 11:45:45;;;;;;;5.72;5.32;;;;;;;;;;5111653;28;20105;-84
2023/06/19 11:48:12;;;;;;;5.50;5.10;;;;;;;;;;5111989;28;20415;-84
2023/06/19 11:50:41;;;;;;;6.25;5.38;;;;;;;;;;5111874;28;20056;-83
2023/06/19 11:53:08;;;;;;;7.43;5.40;;;;;;;;;;5116107;28;20089;-84
2023/06/19 11:55:35;;;;;;;10.25;5.25;;;;;;;;;;5115218;28;20055;-81
2023/06/19 11:58:05;;;;;;;7.97;5.80;;;;;;;;;;5116398;28;20067;-82
2023/06/19 12:00:32;;;;;;;5.97;5.47;;;;;;;;;;5115251;28;20112;-82
2023/06/19 12:02:59;;;;;;;6.15;5.55;;;;;;;;;;5114490;28;20450;-81
2023/06/19 12:05:27;;;;;;;6.13;5.25;;;;;;;;;;5116086;28;20051;-82
2023/06/19 12:07:54;;;;;;;6.88;5.40;;;;;;;;;;5114833;28;20476;-84
2023/06/19 12:10:22;;;;;;;6.30;5.72;;;;;;;;;;5115986;28;20070;-84
2023/06/19 12:12:49;;;;;;;5.15;4.70;;;;;;;;;;5114536;28;20488;-81
2023/06/19 12:15:17;;;;;;;5.72;5.10;;;;;;;;;;5116505;28;20101;-82
2023/06/19 12:17:44;;;;;;;5.90;5.28;;;;;;;;;;5115863;28;20105;-82
2023/06/19 12:20:13;;;;;;;8.88;5.10;;;;;;;;;;5114669;28;20081;-82
2023/06/19 12:22:42;;;;;;;6.80;5.88;;;;;;;;;;5115404;28;20048;-85
2023/06/19 12:25:10;;;;;;;5.60;5.20;;;;;;;;;;5113252;28;20101;-88
2023/06/19 12:27:41;;;;;;;5.75;5.18;;;;;;;;;;5114919;28;20079;-81
2023/06/19 12:30:09;;;;;;;7.45;4.93;;;;;;;;;;5115819;28;20040;-81
2023/06/19 12:32:36;;;;;;;14.55;5.30;;;;;;;;;;5115660;28;20059;-86
2023/06/19 12:35:04;;;;;;;6.13;5.05;;;;;;;;;;5115137;28;20047;-82
2023/06/19 12:37:32;;;;;;;5.97;5.18;;;;;;;;;;5114638;28;20047;-86
2023/06/19 12:39:59;;;;;;;5.63;5.10;;;;;;;;;;5115239;28;20047;-86
2023/06/19 12:42:26;;;;;;;7.25;4.90;;;;;;;;;;5114861;28;20055;-81
2023/06/19 12:44:53;;;;;;;6.47;4.60;;;;;;;;;;5116278;28;20043;-81
2023/06/19 12:47:20;;;;;;;6.95;5.35;;;;;;;;;;5118136;28;20056;-80
2023/06/19 12:49:48;;;;;;;5.88;4.68;;;;;;;;;;5114131;28;20047;-80
2023/06/19 12:52:15;;;;;;;8.30;5.05;;;;;;;;;;5114456;28;20044;-82
2023/06/19 12:54:42;;;;;;;5.90;5.35;;;;;;;;;;5113804;28;20097;-80
2023/06/19 12:57:10;;;;;;;5.43;4.57;;;;;;;;;;5114748;28;20043;-81
2023/06/19 12:59:37;;;;;;;5.07;4.68;;;;;;;;;;5114294;28;20071;-82
2023/06/19 13:02:05;;;;;;;5.10;4.13;;;;;;;;;;5113738;28;20104;-81
2023/06/19 13:04:32;;;;;;;6.13;4.78;;;;;;;;;;5113340;28;20044;-80
2023/06/19 13:06:59;;;;;;;5.03;4.50;;;;;;;;;;5114678;27;20052;-80
2023/06/19 13:09:26;;;;;;;4.65;4.35;;;;;;;;;;5114259;28;20526;-81
2023/06/19 13:11:54;;;;;;;5.38;4.30;;;;;;;;;;5113158;28;20461;-81
2023/06/19 13:14:21;;;;;;;4.95;4.45;;;;;;;;;;5113158;28;20048;-81
2023/06/19 13:16:48;;;;;;;4.93;4.53;;;;;;;;;;5113044;28;20051;-81
2023/06/19 13:19:16;;;;;;;5.35;4.30;;;;;;;;;;5114457;27;20044;-81
2023/06/19 13:21:43;;;;;;;4.97;4.30;;;;;;;;;;5113200;28;20051;-84
2023/06/19 13:24:10;;;;;;;6.63;4.55;;;;;;;;;;5113063;28;20403;-80
2023/06/19 13:26:38;;;;;;;6.85;4.32;;;;;;;;;;5114237;28;20093;-82
2023/06/19 13:29:08;;;;;;;6.85;4.10;;;;;;;;;;5113084;28;20445;-81
2023/06/19 13:31:35;;;;;;;8.43;4.15;;;;;;;;;;5112664;28;20051;-80
2023/06/19 13:34:02;;;;;;;4.35;4.05;;;;;;;;;;5113062;28;20072;-83
2023/06/19 13:36:29;;;;;;;5.53;4.13;;;;;;;;;;5112911;28;20051;-84
2023/06/19 13:38:57;;;;;;;4.95;4.53;;;;;;;;;;5113551;28;20083;-80
2023/06/19 13:41:24;;;;;;;6.30;4.50;;;;;;;;;;5112560;28;20052;-80
2023/06/19 13:43:53;;;;;;;4.28;4.05;;;;;;;;;;5113539;28;20044;-82
2023/06/19 13:46:23;;;;;;;4.85;4.47;;;;;;;;;;5113514;28;20453;-82
2023/06/19 13:48:51;;;;;;;4.63;4.13;;;;;;;;;;5113996;28;20127;-84
2023/06/19 13:51:19;;;;;;;5.13;4.60;;;;;;;;;;5112756;28;20047;-84
2023/06/19 13:53:46;;;;;;;4.55;4.22;;;;;;;;;;5112410;28;20105;-82
2023/06/19 13:56:14;;;;;;;9.10;4.70;;;;;;;;;;5112369;28;20498;-82
2023/06/19 13:58:41;;;;;;;5.45;4.95;;;;;;;;;;5113712;28;20496;-82
2023/06/19 14:01:09;;;;;;;6.00;4.22;;;;;;;;;;5113983;27;20071;-82
2023/06/19 14:03:37;;;;;;;4.35;4.03;;;;;;;;;;5118082;28;20046;-81
2023/06/19 14:06:04;;;;;;;8.13;4.13;;;;;;;;;;5114705;28;20134;-81
2023/06/19 14:08:32;;;;;;;5.85;4.50;;;;;;;;;;5112649;28;20074;-84
2023/06/19 14:11:00;;;;;;;9.50;4.50;;;;;;;;;;5113057;28;20063;-80
2023/06/19 14:13:27;;;;;;;5.32;3.92;;;;;;;;;;5113240;28;20059;-81
2023/06/19 14:15:54;;;;;;;4.78;4.40;;;;;;;;;;5111893;28;20080;-80
2023/06/19 14:18:22;;;;;;;6.07;4.57;;;;;;;;;;5115853;28;20091;-81
2023/06/19 14:20:50;;;;;;;5.38;4.40;;;;;;;;;;5114608;28;20146;-82
2023/06/19 14:23:17;;;;;;;5.18;4.50;;;;;;;;;;5113075;28;20086;-79
2023/06/19 14:25:44;;;;;;;6.85;5.10;;;;;;;;;;5113108;28;20093;-82
2023/06/19 14:28:14;;;;;;;4.97;4.60;;;;;;;;;;5113366;28;20419;-81
2023/06/19 14:30:41;;;;;;;5.85;5.25;;;;;;;;;;5112356;28;20091;-83
2023/06/19 14:33:14;;;;;;;4.63;4.22;;;;;;;;;;5112813;28;20055;-80
2023/06/19 14:35:45;;;;;;;7.80;5.05;;;;;;;;;;5113183;28;20043;-83